CYVR

Vancouver International Airport

Vancouver, , Canada
METAR CYVR 221700Z 15004KT 090V180 30SM SCT023 10/05 A3043 RMK CU3 SLP306
Observed Flight Rules
Apr-22 @ 17:00 UTC (an hour ago) Visual Flight Rules
Wind Visibility Clouds
150° at 4 knots 30 miles
  • Scattered at 2,300' AGL
Temperatures Readings
Current 10°C / 50°F
Dewpoint 5°C / 41°F
Humidity 71%
Altimeter 30.43" Hg
Pressure 1030.6 hPa
Elevation 2
METAR CYVR 221700Z 15004KT 090V180 30SM SCT023 10/05 A3043 RMK CU3 SLP306
Observed Flight Rules
Apr-22 @ 17:00 UTC
(an hour ago)
VFR
Wind Visibility
150° at 4 knots 30 miles
Clouds
  • Scattered at 2,300' AGL
Temperature Dewpoint
10°C / 50°F 5°C / 41°F
Humidity Altimeter Pressure
71% 30.43" Hg 1030.6 hPa